createdAt,value
2023-01-28T00:02:52.046Z,2.55
2023-01-28T00:06:03.219Z,2.25
2023-01-28T00:09:05.038Z,2.50
2023-01-28T00:12:07.154Z,2.42
2023-01-28T00:15:09.636Z,2.58
2023-01-28T00:18:11.505Z,2.22
2023-01-28T00:21:15.288Z,2.38
2023-01-28T00:24:17.197Z,2.33
2023-01-28T00:27:21.319Z,2.30
2023-01-28T00:30:23.579Z,2.42
2023-01-28T00:33:25.679Z,2.22
2023-01-28T00:36:27.559Z,2.30
2023-01-28T00:39:29.537Z,2.60
2023-01-28T00:42:31.448Z,2.40
2023-01-28T00:45:33.373Z,2.78
2023-01-28T00:48:37.243Z,2.80
2023-01-28T00:51:39.287Z,2.35
2023-01-28T00:54:43.186Z,2.92
2023-01-28T00:57:45.149Z,3.00
2023-01-28T01:00:47.315Z,3.75
2023-01-28T01:03:49.927Z,3.22
2023-01-28T01:06:52.164Z,3.38
2023-01-28T01:09:54.673Z,3.42
2023-01-28T01:12:59.465Z,2.92
2023-01-28T01:16:06.906Z,2.67
2023-01-28T01:19:11.385Z,3.00
2023-01-28T01:22:13.258Z,2.60
2023-01-28T01:25:17.873Z,2.72
2023-01-28T01:28:20.357Z,2.70
2023-01-28T01:31:23.245Z,2.80
2023-01-28T01:34:25.292Z,3.03
2023-01-28T01:37:29.463Z,3.15
2023-01-28T01:40:31.438Z,2.97
2023-01-28T01:43:49.714Z,2.60
2023-01-28T01:46:52.080Z,3.35
2023-01-28T01:49:57.092Z,2.80
2023-01-28T01:53:03.815Z,2.58
2023-01-28T01:56:10.020Z,3.70
2023-01-28T01:59:15.510Z,3.95
2023-01-28T02:02:18.181Z,3.25
2023-01-28T02:05:22.330Z,3.22
2023-01-28T02:08:25.286Z,3.05
2023-01-28T02:11:31.720Z,3.17
2023-01-28T02:14:38.533Z,3.33
2023-01-28T02:17:41.382Z,2.95
2023-01-28T02:21:14.198Z,2.78
2023-01-28T02:24:30.605Z,3.10
2023-01-28T02:27:51.536Z,3.20
2023-01-28T02:31:07.391Z,2.95
2023-01-28T02:34:22.568Z,3.22
2023-01-28T02:40:30.782Z,2.80
2023-01-28T02:43:39.783Z,3.30
2023-01-28T02:46:41.778Z,3.55
2023-01-28T02:49:53.126Z,3.00
2023-01-28T02:53:17.841Z,3.30
2023-01-28T02:56:26.080Z,3.38
2023-01-28T02:59:36.415Z,3.53
2023-01-28T03:02:50.131Z,3.22
2023-01-28T03:05:57.764Z,3.67
2023-01-28T03:09:03.133Z,3.67
2023-01-28T03:12:06.414Z,2.95
2023-01-28T03:15:17.039Z,3.30
2023-01-28T03:18:28.704Z,3.42
2023-01-28T03:21:38.978Z,3.85
2023-01-28T03:24:49.117Z,4.13
2023-01-28T03:27:56.912Z,3.30
2023-01-28T03:31:16.630Z,3.25
2023-01-28T03:34:25.885Z,3.58
2023-01-28T03:37:27.855Z,3.92
2023-01-28T03:41:02.748Z,4.03
2023-01-28T03:44:06.033Z,3.80
2023-01-28T03:47:07.977Z,4.05
2023-01-28T03:50:10.686Z,4.13
2023-01-28T03:53:25.389Z,3.75
2023-01-28T03:56:27.258Z,3.33
2023-01-28T03:59:29.485Z,3.10
2023-01-28T04:02:31.583Z,3.53
2023-01-28T04:05:35.484Z,3.33
2023-01-28T04:08:38.687Z,3.42
2023-01-28T04:12:05.157Z,3.33
2023-01-28T04:15:13.357Z,3.20
2023-01-28T04:18:16.740Z,4.28
2023-01-28T04:21:18.631Z,3.90
2023-01-28T04:24:21.544Z,3.55
2023-01-28T04:27:23.945Z,4.10
2023-01-28T04:30:36.536Z,3.33
2023-01-28T04:33:45.447Z,3.00
2023-01-28T04:37:08.483Z,3.60
2023-01-28T04:40:19.437Z,3.10
2023-01-28T04:43:39.008Z,3.45
2023-01-28T04:47:01.746Z,3.47
2023-01-28T04:50:11.811Z,3.65
2023-01-28T04:53:20.541Z,3.58
2023-01-28T04:56:33.374Z,3.17
2023-01-28T04:59:36.162Z,3.40
2023-01-28T05:02:38.162Z,3.45
2023-01-28T05:05:42.558Z,3.15
2023-01-28T05:08:56.305Z,3.25
2023-01-28T05:11:58.171Z,3.15
2023-01-28T05:15:00.633Z,2.78
2023-01-28T05:18:02.635Z,3.03
2023-01-28T05:21:10.321Z,3.33
2023-01-28T05:24:14.334Z,2.90
2023-01-28T05:27:16.241Z,3.03
2023-01-28T05:30:19.272Z,2.95
2023-01-28T05:33:21.256Z,2.85
2023-01-28T05:36:23.337Z,2.88
2023-01-28T05:39:26.013Z,3.25
2023-01-28T05:42:28.070Z,3.00
2023-01-28T05:45:39.774Z,2.80
2023-01-28T05:48:46.453Z,3.40
2023-01-28T05:52:06.610Z,3.50
2023-01-28T05:55:11.410Z,3.13
2023-01-28T05:58:13.551Z,2.50
2023-01-28T06:01:15.451Z,2.58
2023-01-28T06:07:29.776Z,2.80
2023-01-28T06:10:33.005Z,2.75
2023-01-28T06:13:37.492Z,3.20
2023-01-28T06:16:57.231Z,3.00
2023-01-28T06:20:01.688Z,2.90
2023-01-28T06:23:07.503Z,2.58
2023-01-28T06:26:09.392Z,3.28
2023-01-28T06:29:14.045Z,2.72
2023-01-28T06:32:16.176Z,2.95
2023-01-28T06:35:20.439Z,2.50
2023-01-28T06:38:22.360Z,2.78
2023-01-28T06:41:24.290Z,2.92
2023-01-28T06:44:26.375Z,2.97
2023-01-28T06:47:28.266Z,3.38
2023-01-28T06:50:30.286Z,2.83
2023-01-28T06:53:32.279Z,3.65
2023-01-28T06:56:34.141Z,3.70
2023-01-28T06:59:36.039Z,2.88
2023-01-28T07:02:38.252Z,3.25
2023-01-28T07:05:40.156Z,3.00
2023-01-28T07:08:42.026Z,3.13
2023-01-28T07:11:43.983Z,2.85
2023-01-28T07:14:46.473Z,3.35
2023-01-28T07:17:48.443Z,3.55
2023-01-28T07:20:50.321Z,3.78
2023-01-28T07:23:52.217Z,3.42
2023-01-28T07:26:54.086Z,3.33
2023-01-28T07:29:55.950Z,3.22
2023-01-28T07:32:59.420Z,3.25
2023-01-28T07:36:01.418Z,3.15
2023-01-28T07:39:03.611Z,3.20
2023-01-28T07:42:05.886Z,3.35
2023-01-28T07:45:12.286Z,3.30
2023-01-28T07:48:14.115Z,3.70
2023-01-28T07:51:15.958Z,3.58
2023-01-28T07:54:20.436Z,3.00
2023-01-28T07:57:22.287Z,3.65
2023-01-28T08:00:25.819Z,3.25
2023-01-28T08:03:28.531Z,3.42
2023-01-28T08:06:30.523Z,3.30
2023-01-28T08:09:32.477Z,4.15
2023-01-28T08:12:34.406Z,3.28
2023-01-28T08:15:36.613Z,3.20
2023-01-28T08:18:38.553Z,4.03
2023-01-28T08:21:40.477Z,3.42
2023-01-28T08:24:42.722Z,2.95
2023-01-28T08:27:44.778Z,3.50
2023-01-28T08:30:47.286Z,2.80
2023-01-28T08:33:49.229Z,3.72
2023-01-28T08:36:51.132Z,2.88
2023-01-28T08:39:53.325Z,3.72
2023-01-28T08:42:55.474Z,4.40
2023-01-28T08:45:57.519Z,3.70
2023-01-28T08:48:59.393Z,3.67
2023-01-28T08:52:02.445Z,3.47
2023-01-28T08:58:14.815Z,3.58
2023-01-28T09:01:16.709Z,3.83
2023-01-28T09:04:18.640Z,3.83
2023-01-28T09:07:20.548Z,3.80
2023-01-28T09:10:23.034Z,3.58
2023-01-28T09:13:25.438Z,3.85
2023-01-28T09:16:27.394Z,4.22
2023-01-28T09:19:29.367Z,4.03
2023-01-28T09:22:32.425Z,4.50
2023-01-28T09:28:38.702Z,3.72
2023-01-28T09:31:41.553Z,3.80
2023-01-28T09:34:43.408Z,3.55
2023-01-28T09:37:45.948Z,3.85
2023-01-28T09:40:48.071Z,3.90
2023-01-28T09:43:58.891Z,4.05
2023-01-28T09:51:01.763Z,4.10
2023-01-28T09:54:19.157Z,3.90
2023-01-28T09:57:23.365Z,4.43
2023-01-28T10:00:45.772Z,3.92
2023-01-28T10:04:19.329Z,3.33
2023-01-28T10:07:40.201Z,4.25
2023-01-28T10:10:48.794Z,3.65
2023-01-28T10:14:12.036Z,4.32
2023-01-28T10:17:21.113Z,4.45
2023-01-28T10:23:40.279Z,4.13
2023-01-28T10:26:44.318Z,4.22
2023-01-28T10:29:48.113Z,4.30
2023-01-28T10:32:52.421Z,3.85
2023-01-28T10:35:58.119Z,3.50
2023-01-28T10:39:00.241Z,3.58
2023-01-28T10:42:02.844Z,3.97
2023-01-28T10:45:23.066Z,4.43
2023-01-28T10:48:29.837Z,4.15
2023-01-28T10:51:41.353Z,4.22
2023-01-28T10:54:45.742Z,3.97
2023-01-28T10:57:48.527Z,4.30
2023-01-28T11:00:56.781Z,3.83
2023-01-28T11:03:59.200Z,4.18
2023-01-28T11:07:17.232Z,3.50
2023-01-28T11:10:31.998Z,3.70
2023-01-28T11:13:34.029Z,3.70
2023-01-28T11:16:39.676Z,3.88
2023-01-28T11:19:41.635Z,3.83
2023-01-28T11:22:44.993Z,4.07
2023-01-28T11:25:47.200Z,3.55
2023-01-28T11:28:49.477Z,3.72
2023-01-28T11:31:51.968Z,4.05
2023-01-28T11:34:55.959Z,3.47
2023-01-28T11:37:59.033Z,3.63
2023-01-28T11:44:19.420Z,3.17
2023-01-28T11:47:49.126Z,4.30
2023-01-28T12:03:42.343Z,4.13
2023-01-28T12:07:25.783Z,3.70
2023-01-28T12:11:01.681Z,3.88
2023-01-28T12:14:29.715Z,3.50
2023-01-28T12:17:37.415Z,3.33
2023-01-28T12:21:00.737Z,3.47
2023-01-28T12:24:15.140Z,3.15
2023-01-28T12:27:25.620Z,3.28
2023-01-28T12:30:39.326Z,3.63
2023-01-28T12:34:18.962Z,3.00
2023-01-28T12:37:41.966Z,2.90
2023-01-28T12:44:14.596Z,3.50
2023-01-28T12:47:29.152Z,2.90
2023-01-28T12:51:04.449Z,3.00
2023-01-28T12:54:19.499Z,3.15
2023-01-28T12:57:28.431Z,3.42
2023-01-28T13:00:33.647Z,3.10
2023-01-28T13:03:40.099Z,3.10
2023-01-28T13:06:44.715Z,3.03
2023-01-28T13:09:59.859Z,2.92
2023-01-28T13:13:03.389Z,2.83
2023-01-28T13:16:08.651Z,2.63
2023-01-28T13:19:19.388Z,2.55
2023-01-28T13:22:33.527Z,2.45
2023-01-28T13:25:35.788Z,2.40
2023-01-28T13:28:37.896Z,2.45
2023-01-28T13:31:41.938Z,2.78
2023-01-28T13:34:43.836Z,2.53
2023-01-28T13:37:46.513Z,1.98
2023-01-28T13:41:01.439Z,2.38
2023-01-28T13:44:03.288Z,2.08
2023-01-28T13:47:28.676Z,2.38
2023-01-28T13:50:42.862Z,2.03
2023-01-28T13:53:52.995Z,2.38
2023-01-28T14:00:40.779Z,2.50
2023-01-28T14:07:07.511Z,2.08
2023-01-28T14:10:24.191Z,1.90
2023-01-28T14:13:26.242Z,2.15
2023-01-28T14:16:40.586Z,2.95
2023-01-28T14:19:45.927Z,2.33
2023-01-28T14:22:48.973Z,2.63
2023-01-28T14:29:23.703Z,3.20
2023-01-28T14:32:30.598Z,2.90
2023-01-28T14:35:37.524Z,2.80
2023-01-28T14:38:42.367Z,2.67
2023-01-28T14:41:46.969Z,3.13
2023-01-28T14:45:04.467Z,2.13
2023-01-28T14:48:30.357Z,2.72
2023-01-28T14:51:58.580Z,2.60
2023-01-28T14:55:21.236Z,3.00
2023-01-28T14:58:33.181Z,3.30
2023-01-28T15:01:35.090Z,3.30
2023-01-28T15:04:37.031Z,2.83
2023-01-28T15:07:47.236Z,2.38
2023-01-28T15:10:55.246Z,2.25
2023-01-28T15:13:59.630Z,2.75
2023-01-28T15:17:03.024Z,3.10
2023-01-28T15:20:09.936Z,2.70
2023-01-28T15:26:38.764Z,2.42
2023-01-28T15:29:40.649Z,2.90
2023-01-28T15:33:01.122Z,2.55
2023-01-28T15:36:03.604Z,3.08
2023-01-28T15:39:14.223Z,2.42
2023-01-28T15:42:28.844Z,2.60
2023-01-28T15:45:37.720Z,2.88
2023-01-28T15:48:53.429Z,2.80
2023-01-28T15:51:55.422Z,2.45
2023-01-28T15:58:29.760Z,2.17
2023-01-28T16:04:38.880Z,2.58
2023-01-28T16:07:46.224Z,2.50
2023-01-28T16:10:56.213Z,2.78
2023-01-28T16:13:58.909Z,2.65
2023-01-28T16:17:01.032Z,2.90
2023-01-28T16:20:23.971Z,2.92
2023-01-28T16:23:28.306Z,3.13
2023-01-28T16:26:32.553Z,3.10
2023-01-28T16:29:42.807Z,3.00
2023-01-28T16:32:45.396Z,2.63
2023-01-28T16:36:05.442Z,3.08
2023-01-28T16:39:14.422Z,3.45
2023-01-28T16:42:22.435Z,3.30
2023-01-28T16:45:25.546Z,3.78
2023-01-28T16:51:29.902Z,3.33
2023-01-28T16:54:41.781Z,3.72
2023-01-28T16:57:45.037Z,3.47
2023-01-28T17:00:48.394Z,3.10
2023-01-28T17:03:50.503Z,3.63
2023-01-28T17:06:53.336Z,3.67
2023-01-28T17:09:55.906Z,4.60
2023-01-28T17:12:57.817Z,5.43
2023-01-28T17:16:03.999Z,4.97
2023-01-28T17:19:06.073Z,4.68
2023-01-28T17:22:07.923Z,4.80
2023-01-28T17:25:10.446Z,4.10
2023-01-28T17:28:13.014Z,4.03
2023-01-28T17:31:15.116Z,4.22
2023-01-28T17:34:17.036Z,4.38
2023-01-28T17:37:18.914Z,4.18
2023-01-28T17:40:21.325Z,3.80
2023-01-28T17:43:23.603Z,3.63
2023-01-28T17:46:26.664Z,4.10
2023-01-28T17:49:31.961Z,4.13
2023-01-28T17:52:34.055Z,4.03
2023-01-28T17:55:36.294Z,3.97
2023-01-28T17:58:44.525Z,4.55
2023-01-28T18:01:52.427Z,4.00
2023-01-28T18:04:54.298Z,4.30
2023-01-28T18:07:56.328Z,4.63
2023-01-28T18:10:58.632Z,5.53
2023-01-28T18:14:00.767Z,6.18
2023-01-28T18:17:09.440Z,5.80
2023-01-28T18:20:11.997Z,5.50
2023-01-28T18:23:13.869Z,5.20
2023-01-28T18:26:15.817Z,5.97
2023-01-28T18:29:17.805Z,5.95
2023-01-28T18:32:33.154Z,7.25
2023-01-28T18:35:40.640Z,6.82
2023-01-28T18:38:42.831Z,6.75
2023-01-28T18:41:44.802Z,4.63
2023-01-28T18:44:48.336Z,4.18
2023-01-28T18:47:50.768Z,4.30
2023-01-28T18:50:55.301Z,3.95
2023-01-28T18:54:03.112Z,4.25
2023-01-28T18:57:05.261Z,4.05
2023-01-28T19:00:08.095Z,4.10
2023-01-28T19:06:20.494Z,3.85
2023-01-28T19:09:23.730Z,4.47
2023-01-28T19:12:25.853Z,4.30
2023-01-28T19:15:28.011Z,3.80
2023-01-28T19:18:30.648Z,4.22
2023-01-28T19:21:33.431Z,4.28
2023-01-28T19:30:45.022Z,3.90
2023-01-28T19:33:48.576Z,4.28
2023-01-28T19:36:51.116Z,4.05
2023-01-28T19:39:57.645Z,4.03
2023-01-28T19:43:05.625Z,4.55
2023-01-28T19:46:08.305Z,4.30
2023-01-28T19:52:17.957Z,4.90
2023-01-28T19:55:23.020Z,5.07
2023-01-28T19:58:25.255Z,6.53
2023-01-28T20:01:30.477Z,3.95
2023-01-28T20:04:47.487Z,4.40
2023-01-28T20:07:57.145Z,4.22
2023-01-28T20:11:07.627Z,4.60
2023-01-28T20:14:15.830Z,4.78
2023-01-28T20:17:24.846Z,5.30
2023-01-28T20:20:27.262Z,4.47
2023-01-28T20:23:29.437Z,4.03
2023-01-28T20:26:34.199Z,4.72
2023-01-28T20:29:36.246Z,4.38
2023-01-28T20:32:38.253Z,4.93
2023-01-28T20:35:40.248Z,4.43
2023-01-28T20:38:46.862Z,4.53
2023-01-28T20:41:48.885Z,4.32
2023-01-28T20:44:51.052Z,5.13
2023-01-28T20:47:53.009Z,4.82
2023-01-28T20:51:11.685Z,4.20
2023-01-28T20:57:20.838Z,4.47
2023-01-28T21:00:29.641Z,4.25
2023-01-28T21:03:31.706Z,4.60
2023-01-28T21:09:40.714Z,5.70
2023-01-28T21:12:48.764Z,5.68
2023-01-28T21:15:57.201Z,5.20
2023-01-28T21:18:59.214Z,6.03
2023-01-28T21:22:01.381Z,4.80
2023-01-28T21:25:05.443Z,6.00
2023-01-28T21:28:09.273Z,5.55
2023-01-28T21:31:20.118Z,4.75
2023-01-28T21:34:22.118Z,6.60
2023-01-28T21:37:24.136Z,5.65
2023-01-28T21:40:26.243Z,5.90
2023-01-28T21:46:36.191Z,5.88
2023-01-28T21:49:38.233Z,5.68
2023-01-28T21:52:42.397Z,6.78
2023-01-28T21:55:47.726Z,5.13
2023-01-28T21:58:51.030Z,6.18
2023-01-28T22:01:53.027Z,6.43
2023-01-28T22:05:01.660Z,5.63
2023-01-28T22:08:03.675Z,6.45
2023-01-28T22:11:07.808Z,5.85
2023-01-28T22:14:20.586Z,6.18
2023-01-28T22:17:23.041Z,5.93
2023-01-28T22:20:25.177Z,5.30
2023-01-28T22:23:29.538Z,4.82
2023-01-28T22:26:31.517Z,5.05
2023-01-28T22:29:33.432Z,4.70
2023-01-28T22:32:35.326Z,4.10
2023-01-28T22:35:37.355Z,4.47
2023-01-28T22:38:40.907Z,4.90
2023-01-28T22:41:44.559Z,4.25
2023-01-28T22:44:47.065Z,3.97
2023-01-28T22:47:49.166Z,4.25
2023-01-28T22:50:51.156Z,4.78
2023-01-28T22:53:53.858Z,4.50
2023-01-28T22:56:55.966Z,4.53
2023-01-28T23:00:00.282Z,4.47
2023-01-28T23:03:03.109Z,4.10
2023-01-28T23:06:05.550Z,4.13
2023-01-28T23:09:07.650Z,5.35
2023-01-28T23:12:09.572Z,5.35
2023-01-28T23:15:11.813Z,4.50
2023-01-28T23:18:20.080Z,4.90
2023-01-28T23:21:28.357Z,5.72
2023-01-28T23:24:31.175Z,4.80
2023-01-28T23:27:33.084Z,4.50
2023-01-28T23:30:35.352Z,5.25
2023-01-28T23:37:38.382Z,4.57
2023-01-28T23:40:40.487Z,4.43
2023-01-28T23:43:42.465Z,4.97
2023-01-28T23:46:44.536Z,4.75
2023-01-28T23:49:47.160Z,4.70
2023-01-28T23:52:49.331Z,4.70
2023-01-28T23:55:51.356Z,5.03
2023-01-28T23:58:53.303Z,4.35
